Time;durP1;ratioP1;P1;durP2;ratioP2;P2;SDS_P1;SDS_P2;PMS_P1;PMS_P2;Temp;Humidity;BMP_temperature;BMP_pressure;BME280_temperature;BME280_humidity;BME280_pressure;Samples;Min_cycle;Max_cycle;Signal;HPM_P1;HPM_P2
2021/07/04 00:06:25;;;;;;;;;;;;;;;15.16;71.40;99167.75;530644;1092;103373;-62
2021/07/04 00:16:29;;;;;;;;;;;;;;;15.20;71.81;99168.31;531222;1093;103756;-61
2021/07/04 00:26:34;;;;;;;;;;;;;;;15.30;71.71;99165.66;531274;1092;102535;-62
2021/07/04 00:36:39;;;;;;;;;;;;;;;15.40;71.79;99169.96;527836;1092;102170;-62
2021/07/04 00:46:44;;;;;;;;;;;;;;;15.36;72.16;99159.83;531220;1092;102118;-62
2021/07/04 00:56:49;;;;;;;;;;;;;;;15.27;72.42;99149.10;527876;1092;103371;-62
2021/07/04 01:06:54;;;;;;;;;;;;;;;15.26;72.58;99142.14;531274;1092;102187;-67
2021/07/04 01:16:59;;;;;;;;;;;;;;;15.41;73.13;99137.27;531158;1092;102799;-63
2021/07/04 01:27:04;;;;;;;;;;;;;;;15.46;73.64;99123.59;530562;1092;103335;-63
2021/07/04 01:37:09;;;;;;;;;;;;;;;15.47;74.09;99121.79;531280;1092;103559;-62
2021/07/04 01:47:14;;;;;;;;;;;;;;;15.39;74.79;99117.22;530996;1092;103882;-62
2021/07/04 01:57:19;;;;;;;;;;;;;;;15.39;75.09;99114.56;530537;1092;102928;-62
2021/07/04 02:07:23;;;;;;;;;;;;;;;15.59;75.32;99123.30;531270;1092;102370;-63
2021/07/04 02:17:29;;;;;;;;;;;;;;;15.72;75.48;99116.86;530159;1092;103248;-61
2021/07/04 02:27:35;;;;;;;;;;;;;;;15.93;75.80;99114.06;529596;1093;102567;-62
2021/07/04 02:37:39;;;;;;;;;;;;;;;15.94;75.75;99123.67;531282;1092;102864;-62
2021/07/04 02:47:44;;;;;;;;;;;;;;;15.92;75.93;99128.25;530535;1091;102112;-63
2021/07/04 02:57:49;;;;;;;;;;;;;;;15.80;76.24;99138.16;531236;1092;102772;-62
2021/07/04 03:07:54;;;;;;;;;;;;;;;15.89;76.29;99139.95;531282;1093;102190;-61
2021/07/04 03:17:58;;;;;;;;;;;;;;;16.02;76.45;99155.53;530581;1092;102816;-62
2021/07/04 03:28:03;;;;;;;;;;;;;;;16.08;76.20;99149.67;531212;1093;102266;-61
2021/07/04 03:38:08;;;;;;;;;;;;;;;16.09;75.78;99153.14;531349;1092;102730;-62
2021/07/04 03:48:13;;;;;;;;;;;;;;;16.05;75.82;99171.16;530499;1092;102491;-61
2021/07/04 03:58:18;;;;;;;;;;;;;;;16.11;75.90;99164.45;531124;1092;103145;-62
2021/07/04 04:08:23;;;;;;;;;;;;;;;16.11;75.92;99178.52;531255;1093;102035;-62
2021/07/04 04:18:28;;;;;;;;;;;;;;;16.33;75.84;99176.48;530692;1093;102637;-61
2021/07/04 04:28:33;;;;;;;;;;;;;;;16.59;75.38;99169.68;531260;1092;102586;-62
2021/07/04 04:38:37;;;;;;;;;;;;;;;16.88;74.90;99168.66;531253;1093;103456;-62
2021/07/04 04:48:43;;;;;;;;;;;;;;;17.12;74.04;99168.11;529549;1093;103232;-62
2021/07/04 04:58:48;;;;;;;;;;;;;;;17.38;73.57;99174.48;530230;1093;103272;-62
2021/07/04 05:08:53;;;;;;;;;;;;;;;17.84;72.80;99179.63;530503;1092;102866;-63
2021/07/04 05:19:04;;;;;;;;;;;;;;;18.03;72.18;99173.30;531228;1093;102595;-63
2021/07/04 05:29:09;;;;;;;;;;;;;;;18.19;71.75;99165.44;531218;1093;101973;-62
2021/07/04 05:39:14;;;;;;;;;;;;;;;17.74;72.21;99156.66;527414;1092;103053;-61
2021/07/04 05:49:19;;;;;;;;;;;;;;;17.93;72.07;99160.92;526833;1093;102378;-62
2021/07/04 05:59:24;;;;;;;;;;;;;;;17.89;72.52;99161.39;531271;1093;103089;-61
2021/07/04 06:09:29;;;;;;;;;;;;;;;18.39;72.19;99169.67;530554;1092;102827;-62
2021/07/04 06:19:33;;;;;;;;;;;;;;;18.68;71.56;99163.12;531233;1092;103435;-62
2021/07/04 06:29:39;;;;;;;;;;;;;;;18.94;71.07;99163.02;531162;1092;103172;-62
2021/07/04 06:39:44;;;;;;;;;;;;;;;18.68;71.02;99171.94;531109;1093;103214;-62
2021/07/04 06:49:49;;;;;;;;;;;;;;;18.82;71.50;99180.28;531147;1093;101750;-62
2021/07/04 06:59:56;;;;;;;;;;;;;;;19.08;70.60;99174.05;530702;1093;102414;-62
2021/07/04 07:10:01;;;;;;;;;;;;;;;19.51;70.37;99174.75;531295;1092;102076;-62
2021/07/04 07:20:08;;;;;;;;;;;;;;;19.98;69.52;99177.73;531198;1092;104408;-61
2021/07/04 07:30:21;;;;;;;;;;;;;;;20.75;68.66;99164.78;530625;1092;102112;-63
2021/07/04 07:40:26;;;;;;;;;;;;;;;20.69;67.69;99161.80;531157;1092;102945;-61
2021/07/04 07:50:31;;;;;;;;;;;;;;;20.39;67.54;99174.11;531203;1092;101818;-62
2021/07/04 08:00:36;;;;;;;;;;;;;;;20.51;67.31;99164.72;530604;1092;102510;-62
2021/07/04 08:10:41;;;;;;;;;;;;;;;20.50;67.03;99157.72;531224;1092;102040;-62
2021/07/04 08:20:46;;;;;;;;;;;;;;;20.61;67.40;99153.02;530517;1092;102765;-63
2021/07/04 08:30:51;;;;;;;;;;;;;;;21.34;66.43;99153.55;531237;1092;103289;-62
2021/07/04 08:40:56;;;;;;;;;;;;;;;22.15;64.61;99152.14;531348;1093;101841;-61
2021/07/04 08:51:01;;;;;;;;;;;;;;;22.59;63.70;99145.13;530656;1092;101968;-61
2021/07/04 09:01:10;;;;;;;;;;;;;;;22.64;62.54;99145.38;531223;1092;102447;-63
2021/07/04 09:11:16;;;;;;;;;;;;;;;23.84;62.00;99145.88;531264;1092;102658;-62
2021/07/04 09:21:22;;;;;;;;;;;;;;;24.50;59.10;99136.52;530511;1092;102960;-61
2021/07/04 09:31:27;;;;;;;;;;;;;;;24.59;58.91;99129.14;531256;1092;101568;-62
2021/07/04 09:41:32;;;;;;;;;;;;;;;25.57;57.50;99121.67;530301;1092;101976;-63
2021/07/04 09:51:37;;;;;;;;;;;;;;;26.07;55.56;99121.13;529215;1092;102629;-62
2021/07/04 10:01:43;;;;;;;;;;;;;;;25.95;54.79;99106.69;531215;1092;103304;-62
2021/07/04 10:11:49;;;;;;;;;;;;;;;26.33;53.56;99094.38;530626;1092;102478;-63
2021/07/04 10:21:55;;;;;;;;;;;;;;;26.40;52.93;99098.69;531220;1093;102421;-62
2021/07/04 10:32:07;;;;;;;;;;;;;;;26.65;51.76;99079.08;531193;1092;102908;-61
2021/07/04 10:42:13;;;;;;;;;;;;;;;26.27;52.21;99074.53;530654;1092;102954;-62
2021/07/04 10:52:19;;;;;;;;;;;;;;;26.26;51.73;99062.96;531085;1092;101943;-61
2021/07/04 11:02:40;;;;;;;;;;;;;;;25.71;51.27;99056.09;531265;1092;103516;-62
2021/07/04 11:12:45;;;;;;;;;;;;;;;25.71;51.10;99036.43;531218;1093;101740;-62
2021/07/04 11:22:56;;;;;;;;;;;;;;;25.45;50.79;99032.75;531282;1092;102377;-62
2021/07/04 11:33:15;;;;;;;;;;;;;;;25.40;50.90;99016.44;530564;1092;103338;-62
2021/07/04 11:43:20;;;;;;;;;;;;;;;25.55;51.21;99011.67;531203;1092;102394;-62
2021/07/04 11:53:25;;;;;;;;;;;;;;;25.95;50.40;98999.11;531356;1092;102311;-62
2021/07/04 12:03:30;;;;;;;;;;;;;;;26.34;50.35;99002.68;529538;1093;103181;-62
2021/07/04 12:13:35;;;;;;;;;;;;;;;26.67;48.98;98981.95;530129;1092;102749;-62
2021/07/04 12:23:40;;;;;;;;;;;;;;;26.67;48.48;98980.09;530124;1092;102526;-62
2021/07/04 12:33:45;;;;;;;;;;;;;;;26.80;49.56;98991.80;530180;1093;102221;-61
2021/07/04 12:43:50;;;;;;;;;;;;;;;26.41;49.89;98986.48;531276;1090;102065;-62
2021/07/04 12:53:55;;;;;;;;;;;;;;;26.47;50.85;98976.72;530595;1092;102977;-62
2021/07/04 13:04:05;;;;;;;;;;;;;;;26.30;51.23;98974.53;531235;1092;102182;-63
2021/07/04 13:14:11;;;;;;;;;;;;;;;26.40;51.21;98963.31;530121;1092;102586;-63
2021/07/04 13:24:23;;;;;;;;;;;;;;;25.91;51.27;98954.88;529551;1092;102697;-62
2021/07/04 13:34:28;;;;;;;;;;;;;;;26.36;50.60;98943.24;531248;1093;103236;-63
2021/07/04 13:44:37;;;;;;;;;;;;;;;25.89;51.36;98944.32;530176;1092;102683;-61
2021/07/04 13:54:43;;;;;;;;;;;;;;;26.15;50.47;98939.85;530584;1092;103112;-63
2021/07/04 14:04:48;;;;;;;;;;;;;;;26.87;49.28;98936.02;531048;1092;102125;-62
2021/07/04 14:14:53;;;;;;;;;;;;;;;26.85;48.71;98922.77;530566;1093;102905;-63
2021/07/04 14:24:58;;;;;;;;;;;;;;;26.84;48.06;98923.82;531256;1092;102589;-62
2021/07/04 14:35:04;;;;;;;;;;;;;;;26.69;48.14;98918.77;530241;1093;102716;-61
2021/07/04 14:45:10;;;;;;;;;;;;;;;26.70;47.50;98920.41;521198;1093;104118;-62
2021/07/04 14:55:21;;;;;;;;;;;;;;;26.41;47.03;98911.94;531216;1093;102388;-62
2021/07/04 15:05:27;;;;;;;;;;;;;;;26.13;47.06;98917.70;530171;1092;102472;-63
2021/07/04 15:15:32;;;;;;;;;;;;;;;25.93;48.28;98920.52;529502;1092;102317;-63
2021/07/04 15:25:37;;;;;;;;;;;;;;;25.60;48.78;98920.47;531293;1092;101375;-63
2021/07/04 15:35:41;;;;;;;;;;;;;;;25.34;49.09;98910.64;531326;1092;102223;-62
2021/07/04 15:45:46;;;;;;;;;;;;;;;25.31;49.49;98911.03;530146;1093;102572;-63
2021/07/04 15:55:53;;;;;;;;;;;;;;;24.90;49.99;98910.31;530117;1093;102856;-62
2021/07/04 16:05:58;;;;;;;;;;;;;;;24.89;50.81;98912.19;529514;1092;102031;-62
2021/07/04 16:16:03;;;;;;;;;;;;;;;24.59;51.69;98919.82;531275;1092;101990;-63
2021/07/04 16:26:08;;;;;;;;;;;;;;;23.72;53.47;98912.41;531247;1093;102029;-65
2021/07/04 16:36:13;;;;;;;;;;;;;;;23.03;55.11;98925.63;530554;1092;102293;-62
2021/07/04 16:46:31;;;;;;;;;;;;;;;22.81;55.64;98934.55;530194;1092;102786;-62
2021/07/04 16:56:36;;;;;;;;;;;;;;;22.70;56.00;98929.73;530211;1093;102408;-62
2021/07/04 17:06:41;;;;;;;;;;;;;;;22.62;56.16;98932.55;529538;1092;103204;-62
2021/07/04 17:16:52;;;;;;;;;;;;;;;22.60;55.93;98916.70;531221;1092;102340;-63
2021/07/04 17:26:57;;;;;;;;;;;;;;;22.75;55.60;98913.94;530562;1092;102919;-62
2021/07/04 17:37:02;;;;;;;;;;;;;;;22.74;55.24;98925.67;531305;1092;102456;-62
2021/07/04 17:47:07;;;;;;;;;;;;;;;22.44;55.08;98925.80;531297;1093;102618;-63
2021/07/04 17:57:12;;;;;;;;;;;;;;;22.92;55.87;98914.47;530677;1093;102125;-63
2021/07/04 18:07:17;;;;;;;;;;;;;;;22.36;55.30;98913.39;531265;1092;102856;-63
2021/07/04 18:17:22;;;;;;;;;;;;;;;21.60;57.14;98929.81;531263;1093;102271;-62
2021/07/04 18:27:27;;;;;;;;;;;;;;;20.93;58.62;98922.53;529513;1092;101899;-62
2021/07/04 18:37:33;;;;;;;;;;;;;;;20.72;59.93;98918.72;530126;1092;102490;-62
2021/07/04 18:47:38;;;;;;;;;;;;;;;20.76;60.51;98921.83;531491;1090;104468;-62
2021/07/04 18:57:43;;;;;;;;;;;;;;;20.74;60.93;98920.38;530849;1090;102489;-62
2021/07/04 19:07:50;;;;;;;;;;;;;;;20.80;61.19;98931.16;531440;1089;103412;-62
2021/07/04 19:17:55;;;;;;;;;;;;;;;20.69;61.70;98929.73;531119;1089;102457;-62
2021/07/04 19:28:00;;;;;;;;;;;;;;;20.49;62.66;98931.23;532923;1088;102760;-62
2021/07/04 19:38:05;;;;;;;;;;;;;;;20.32;63.55;98927.89;532840;1089;103630;-62
2021/07/04 19:48:10;;;;;;;;;;;;;;;20.09;64.26;98931.38;530824;1088;102230;-66
2021/07/04 19:58:15;;;;;;;;;;;;;;;19.94;64.68;98934.78;527693;1088;102635;-61
2021/07/04 20:08:20;;;;;;;;;;;;;;;19.88;65.19;98938.13;519718;1090;163716;-62
2021/07/04 20:18:25;;;;;;;;;;;;;;;19.81;65.65;98927.34;532145;1089;102315;-63
2021/07/04 20:28:30;;;;;;;;;;;;;;;19.90;65.98;98909.48;532868;1089;103460;-62
2021/07/04 20:38:35;;;;;;;;;;;;;;;19.98;66.43;98909.47;532913;1089;102359;-62
2021/07/04 20:48:40;;;;;;;;;;;;;;;19.95;66.81;98906.31;530780;1090;103425;-63
2021/07/04 20:58:45;;;;;;;;;;;;;;;19.78;66.83;98908.22;531476;1090;103235;-63
2021/07/04 21:08:50;;;;;;;;;;;;;;;19.52;67.29;98912.02;530841;1089;103064;-63
2021/07/04 21:18:55;;;;;;;;;;;;;;;19.34;67.72;98893.63;531469;1089;102645;-60
2021/07/04 21:28:59;;;;;;;;;;;;;;;19.11;68.07;98889.05;531481;1090;102129;-62
2021/07/04 21:39:05;;;;;;;;;;;;;;;18.72;69.21;98895.91;530834;1089;102019;-63
2021/07/04 21:49:09;;;;;;;;;;;;;;;18.35;69.50;98890.11;531459;1089;102797;-61
2021/07/04 21:59:15;;;;;;;;;;;;;;;18.11;70.15;98890.91;531469;1089;102415;-62
2021/07/04 22:09:20;;;;;;;;;;;;;;;17.84;70.48;98890.19;532233;1089;102030;-61
2021/07/04 22:19:25;;;;;;;;;;;;;;;17.63;70.94;98884.34;532775;1089;102947;-61
2021/07/04 22:29:30;;;;;;;;;;;;;;;17.61;71.27;98899.59;532758;1089;102645;-61
2021/07/04 22:39:35;;;;;;;;;;;;;;;17.56;71.44;98919.65;530809;1090;103119;-62
2021/07/04 22:49:40;;;;;;;;;;;;;;;17.43;71.14;98912.13;532863;1089;101922;-61
2021/07/04 22:59:45;;;;;;;;;;;;;;;17.29;71.72;98914.39;532151;1090;103244;-62
2021/07/04 23:09:50;;;;;;;;;;;;;;;17.28;71.94;98903.92;531493;1089;102415;-62
2021/07/04 23:19:55;;;;;;;;;;;;;;;17.28;72.25;98917.19;532722;1089;102586;-62
2021/07/04 23:29:59;;;;;;;;;;;;;;;17.23;71.95;98905.24;532215;1090;102870;-62
2021/07/04 23:40:05;;;;;;;;;;;;;;;17.02;72.55;98913.56;532894;1089;102893;-62
2021/07/04 23:50:11;;;;;;;;;;;;;;;16.95;73.17;98915.17;531507;1089;103694;-61
